createdAt,value
2018-03-27T00:02:21.833Z,141.97
2018-03-27T00:04:49.430Z,137.33
2018-03-27T00:07:17.029Z,136.77
2018-03-27T00:09:44.841Z,132.90
2018-03-27T00:12:12.436Z,132.37
2018-03-27T00:14:40.040Z,119.33
2018-03-27T00:17:07.895Z,114.87
2018-03-27T00:19:35.494Z,114.10
2018-03-27T00:22:03.102Z,109.07
2018-03-27T00:24:46.486Z,113.30
2018-03-27T00:27:13.820Z,103.40
2018-03-27T00:29:53.186Z,111.30
2018-03-27T00:32:32.738Z,124.97
2018-03-27T00:35:12.117Z,115.07
2018-03-27T00:37:51.761Z,117.60
2018-03-27T00:40:31.317Z,122.43
2018-03-27T00:43:03.050Z,108.50
2018-03-27T00:45:30.658Z,114.17
2018-03-27T00:47:58.486Z,118.30
2018-03-27T00:50:26.089Z,115.40
2018-03-27T00:52:53.674Z,106.37
2018-03-27T00:55:21.441Z,118.63
2018-03-27T00:57:49.025Z,109.30
2018-03-27T01:00:16.739Z,125.93
2018-03-27T01:02:44.494Z,122.43
2018-03-27T01:05:12.095Z,123.00
2018-03-27T01:07:39.694Z,128.27
2018-03-27T01:10:07.448Z,113.33
2018-03-27T01:12:35.267Z,113.07
2018-03-27T01:15:03.085Z,114.00
2018-03-27T01:17:30.903Z,109.83
2018-03-27T01:19:58.502Z,108.30
2018-03-27T01:22:26.132Z,114.70
2018-03-27T01:24:53.750Z,113.13
2018-03-27T01:27:21.578Z,104.10
2018-03-27T01:29:49.395Z,106.30
2018-03-27T01:32:17.212Z,107.67
2018-03-27T01:34:45.032Z,100.20
2018-03-27T01:37:12.626Z,117.50
2018-03-27T01:39:40.220Z,113.87
2018-03-27T01:42:07.820Z,109.60
2018-03-27T01:44:35.406Z,97.07
2018-03-27T01:47:03.001Z,98.43
2018-03-27T01:49:30.739Z,93.77
2018-03-27T01:51:58.394Z,95.00
2018-03-27T01:54:25.978Z,89.80
2018-03-27T01:56:53.566Z,82.00
2018-03-27T01:59:21.416Z,87.03
2018-03-27T02:01:49.019Z,84.17
2018-03-27T02:04:16.850Z,73.23
2018-03-27T02:06:44.434Z,67.20
2018-03-27T02:09:12.219Z,68.83
2018-03-27T02:11:45.485Z,61.27
2018-03-27T02:14:18.774Z,57.70
2018-03-27T02:16:51.765Z,61.90
2018-03-27T02:19:25.140Z,51.43
2018-03-27T02:21:52.322Z,55.07
2018-03-27T02:24:21.954Z,53.30
2018-03-27T02:26:49.707Z,50.43
2018-03-27T02:29:17.510Z,49.47
2018-03-27T02:31:45.110Z,73.37
2018-03-27T02:34:12.698Z,76.80
2018-03-27T02:36:40.308Z,72.83
2018-03-27T02:39:07.903Z,77.37
2018-03-27T02:41:35.700Z,76.53
2018-03-27T02:44:03.319Z,61.00
2018-03-27T02:46:30.937Z,56.87
2018-03-27T02:48:58.534Z,57.73
2018-03-27T02:51:26.372Z,61.87
2018-03-27T02:53:54.018Z,78.30
2018-03-27T02:56:21.775Z,74.97
2018-03-27T02:58:49.727Z,86.10
2018-03-27T03:01:17.358Z,79.47
2018-03-27T03:03:45.010Z,70.73
2018-03-27T03:06:12.609Z,73.43
2018-03-27T03:08:40.198Z,73.83
2018-03-27T03:11:08.017Z,75.30
2018-03-27T03:13:35.606Z,77.80
2018-03-27T03:16:03.266Z,70.50
2018-03-27T03:18:30.850Z,67.50
2018-03-27T03:20:58.444Z,73.30
2018-03-27T03:23:26.124Z,83.43
2018-03-27T03:25:53.924Z,75.37
2018-03-27T03:28:21.524Z,79.33
2018-03-27T03:30:49.118Z,69.03
2018-03-27T03:33:16.979Z,80.73
2018-03-27T03:35:44.797Z,78.80
2018-03-27T03:38:12.393Z,86.13
2018-03-27T03:40:39.985Z,81.17
2018-03-27T03:43:07.751Z,86.40
2018-03-27T03:45:35.346Z,67.70
2018-03-27T03:48:02.931Z,61.53
2018-03-27T03:50:30.782Z,137.80
2018-03-27T03:52:58.599Z,80.83
2018-03-27T03:55:26.182Z,75.60
2018-03-27T03:57:53.774Z,85.27
2018-03-27T04:00:21.377Z,70.83
2018-03-27T04:02:48.970Z,74.53
2018-03-27T04:05:16.597Z,93.23
2018-03-27T04:07:44.237Z,103.17
2018-03-27T04:10:12.012Z,101.20
2018-03-27T04:12:39.606Z,100.87
2018-03-27T04:15:07.238Z,88.23
2018-03-27T04:17:34.819Z,88.07
2018-03-27T04:20:02.418Z,90.43
2018-03-27T04:22:30.244Z,100.73
2018-03-27T04:24:57.899Z,107.60
2018-03-27T04:27:25.482Z,97.40
2018-03-27T04:29:53.076Z,99.47
2018-03-27T04:32:20.685Z,90.77
2018-03-27T04:34:48.280Z,86.00
2018-03-27T04:37:15.887Z,83.50
2018-03-27T04:39:43.632Z,75.20
2018-03-27T04:42:11.272Z,74.73
2018-03-27T04:44:38.867Z,72.00
2018-03-27T04:47:06.617Z,73.00
2018-03-27T04:49:34.436Z,68.93
2018-03-27T04:52:02.018Z,65.10
2018-03-27T04:54:29.616Z,70.63
2018-03-27T04:56:57.391Z,68.30
2018-03-27T04:59:25.046Z,72.10
2018-03-27T05:01:52.804Z,76.20
2018-03-27T05:04:20.442Z,80.13
2018-03-27T05:06:48.038Z,74.50
2018-03-27T05:09:15.619Z,86.17
2018-03-27T05:11:43.210Z,75.53
2018-03-27T05:14:10.793Z,76.47
2018-03-27T05:16:38.633Z,80.53
2018-03-27T05:19:06.219Z,73.43
2018-03-27T05:21:33.856Z,76.50
2018-03-27T05:24:01.688Z,81.30
2018-03-27T05:26:29.493Z,74.13
2018-03-27T05:28:57.089Z,81.27
2018-03-27T05:31:24.706Z,76.43
2018-03-27T05:33:52.362Z,74.40
2018-03-27T05:36:19.946Z,73.43
2018-03-27T05:38:47.696Z,79.27
2018-03-27T05:41:15.518Z,84.00
2018-03-27T05:43:43.334Z,122.03
2018-03-27T05:46:11.141Z,125.63
2018-03-27T05:48:38.969Z,111.43
2018-03-27T05:51:06.619Z,74.80
2018-03-27T05:53:34.218Z,71.93
2018-03-27T05:56:02.041Z,63.93
2018-03-27T05:58:29.643Z,73.77
2018-03-27T06:00:57.462Z,70.87
2018-03-27T06:03:25.061Z,74.73
2018-03-27T06:05:52.942Z,78.83
2018-03-27T06:08:20.594Z,78.53
2018-03-27T06:10:48.409Z,64.83
2018-03-27T06:13:16.224Z,74.47
2018-03-27T06:15:43.879Z,73.63
2018-03-27T06:18:11.470Z,69.17
2018-03-27T06:20:39.102Z,69.93
2018-03-27T06:23:06.690Z,71.60
2018-03-27T06:25:34.351Z,68.30
2018-03-27T06:28:02.160Z,71.27
2018-03-27T06:30:29.800Z,76.67
2018-03-27T06:33:00.707Z,73.60
2018-03-27T06:35:28.965Z,81.73
2018-03-27T06:37:56.558Z,77.97
2018-03-27T06:40:24.815Z,71.87
2018-03-27T06:42:53.323Z,68.87
2018-03-27T06:45:20.914Z,72.13
2018-03-27T06:47:48.731Z,65.20
2018-03-27T06:50:16.541Z,72.63
2018-03-27T06:52:44.136Z,79.53
2018-03-27T06:55:11.731Z,69.57
2018-03-27T06:57:39.322Z,70.40
2018-03-27T07:00:07.008Z,71.60
2018-03-27T07:02:34.750Z,82.13
2018-03-27T07:05:02.342Z,80.83
2018-03-27T07:07:29.935Z,71.00
2018-03-27T07:09:57.684Z,71.87
2018-03-27T07:12:25.512Z,70.43
2018-03-27T07:14:54.484Z,66.67
2018-03-27T07:17:22.270Z,65.37
2018-03-27T07:19:50.002Z,69.30
2018-03-27T07:22:17.669Z,75.13
2018-03-27T07:24:45.501Z,70.00
2018-03-27T07:27:13.081Z,73.73
2018-03-27T07:29:40.726Z,73.83
2018-03-27T07:32:08.302Z,72.53
2018-03-27T07:34:36.171Z,69.13
2018-03-27T07:37:03.832Z,64.53
2018-03-27T07:39:31.414Z,73.33
2018-03-27T07:41:59.005Z,73.93
2018-03-27T07:44:26.585Z,68.93
2018-03-27T07:46:54.462Z,64.80
2018-03-27T07:49:22.158Z,61.33
2018-03-27T07:51:49.746Z,65.83
2018-03-27T07:54:17.519Z,62.53
2018-03-27T07:56:45.107Z,69.97
2018-03-27T07:59:12.952Z,63.83
2018-03-27T08:01:40.561Z,64.27
2018-03-27T08:04:08.210Z,69.37
2018-03-27T08:06:35.804Z,70.77
2018-03-27T08:09:03.723Z,69.40
2018-03-27T08:11:31.327Z,58.83
2018-03-27T08:13:58.941Z,100.77
2018-03-27T08:16:26.542Z,61.17
2018-03-27T08:18:54.140Z,52.20
2018-03-27T08:21:22.013Z,52.47
2018-03-27T08:23:49.831Z,60.60
2018-03-27T08:26:17.414Z,71.57
2018-03-27T08:28:45.005Z,74.07
2018-03-27T08:31:12.785Z,60.40
2018-03-27T08:33:40.604Z,64.67
2018-03-27T08:36:08.213Z,66.13
2018-03-27T08:38:35.842Z,69.03
2018-03-27T08:41:03.490Z,67.83
2018-03-27T08:43:31.119Z,59.40
2018-03-27T08:45:58.785Z,54.63
2018-03-27T08:48:26.612Z,61.10
2018-03-27T08:50:54.430Z,59.60
2018-03-27T08:53:22.250Z,56.73
2018-03-27T08:55:50.027Z,84.23
2018-03-27T08:58:17.627Z,66.17
2018-03-27T09:00:45.215Z,63.03
2018-03-27T09:03:13.003Z,56.43
2018-03-27T09:05:40.840Z,63.30
2018-03-27T09:08:08.450Z,52.60
2018-03-27T09:10:36.255Z,52.83
2018-03-27T09:13:04.096Z,54.80
2018-03-27T09:15:31.718Z,58.93
2018-03-27T09:17:59.306Z,52.40
2018-03-27T09:20:27.026Z,54.17
2018-03-27T09:22:54.866Z,48.30
2018-03-27T09:25:22.686Z,44.33
2018-03-27T09:27:50.302Z,44.83
2018-03-27T09:30:18.122Z,38.40
2018-03-27T09:32:45.723Z,34.70
2018-03-27T09:35:13.566Z,36.67
2018-03-27T09:37:41.163Z,39.80
2018-03-27T09:40:08.758Z,29.47
2018-03-27T09:42:36.613Z,35.47
2018-03-27T09:45:04.230Z,34.33
2018-03-27T09:47:31.964Z,31.70
2018-03-27T09:49:59.767Z,37.10
2018-03-27T09:52:27.358Z,39.20
2018-03-27T09:54:55.005Z,33.23
2018-03-27T09:57:22.813Z,31.03
2018-03-27T09:59:50.641Z,32.70
2018-03-27T10:02:18.239Z,27.47
2018-03-27T10:04:45.817Z,30.90
2018-03-27T10:07:13.455Z,43.13
2018-03-27T10:09:41.212Z,31.10
2018-03-27T10:12:08.797Z,138.03
2018-03-27T10:14:36.648Z,73.67
2018-03-27T10:17:04.233Z,45.57
2018-03-27T10:19:31.975Z,41.50
2018-03-27T10:21:59.582Z,34.07
2018-03-27T10:24:27.174Z,50.77
2018-03-27T10:26:54.801Z,36.47
2018-03-27T10:29:22.378Z,28.33
2018-03-27T10:31:49.974Z,33.60
2018-03-27T10:34:17.658Z,42.63
2018-03-27T10:36:45.299Z,32.57
2018-03-27T10:39:13.238Z,26.60
2018-03-27T10:41:41.006Z,31.23
2018-03-27T10:44:08.609Z,34.67
2018-03-27T10:46:36.386Z,80.27
2018-03-27T10:49:03.999Z,28.60
2018-03-27T10:51:31.612Z,24.77
2018-03-27T10:53:59.261Z,21.53
2018-03-27T10:56:27.055Z,25.77
2018-03-27T10:58:54.650Z,23.43
2018-03-27T11:01:22.380Z,60.10
2018-03-27T11:03:49.960Z,19.37
2018-03-27T11:06:17.558Z,55.47
2018-03-27T11:08:45.316Z,66.33
2018-03-27T11:11:13.162Z,60.27
2018-03-27T11:13:40.981Z,37.10
2018-03-27T11:16:08.614Z,21.43
2018-03-27T11:18:36.198Z,20.70
2018-03-27T11:21:04.036Z,17.53
2018-03-27T11:23:31.652Z,15.67
2018-03-27T11:25:59.256Z,18.93
2018-03-27T11:28:26.856Z,16.33
2018-03-27T11:30:54.464Z,41.03
2018-03-27T11:33:22.225Z,37.90
2018-03-27T11:35:49.960Z,23.47
2018-03-27T11:38:17.607Z,20.17
2018-03-27T11:40:45.188Z,22.43
2018-03-27T11:43:12.998Z,14.67
2018-03-27T11:45:40.815Z,18.47
2018-03-27T11:48:08.410Z,13.13
2018-03-27T11:50:36.006Z,14.20
2018-03-27T11:53:03.654Z,14.70
2018-03-27T11:55:31.497Z,18.87
2018-03-27T11:57:59.406Z,21.17
2018-03-27T12:00:27.226Z,165.03
2018-03-27T12:02:54.833Z,51.57
2018-03-27T12:05:22.415Z,16.63
2018-03-27T12:07:50.178Z,21.70
2018-03-27T12:10:17.998Z,19.80
2018-03-27T12:12:45.815Z,29.03
2018-03-27T12:15:13.475Z,20.27
2018-03-27T12:17:41.265Z,13.67
2018-03-27T12:20:08.862Z,9.97
2018-03-27T12:22:36.689Z,11.27
2018-03-27T12:25:04.351Z,16.60
2018-03-27T12:27:31.954Z,50.07
2018-03-27T12:29:59.550Z,39.33
2018-03-27T12:32:27.362Z,22.73
2018-03-27T12:34:54.998Z,39.87
2018-03-27T12:37:22.558Z,20.60
2018-03-27T12:39:50.391Z,19.63
2018-03-27T12:42:17.956Z,26.60
2018-03-27T12:44:45.751Z,18.37
2018-03-27T12:47:13.565Z,11.17
2018-03-27T12:49:41.256Z,41.23
2018-03-27T12:52:08.977Z,134.13
2018-03-27T12:54:36.689Z,24.10
2018-03-27T12:57:04.295Z,11.93
2018-03-27T12:59:31.947Z,11.30
2018-03-27T13:01:59.505Z,15.67
2018-03-27T13:04:27.070Z,46.80
2018-03-27T13:06:54.682Z,23.70
2018-03-27T13:09:22.430Z,31.83
2018-03-27T13:11:50.324Z,14.93
2018-03-27T13:14:17.939Z,14.50
2018-03-27T13:16:45.622Z,15.30
2018-03-27T13:19:13.215Z,14.53
2018-03-27T13:21:41.022Z,28.90
2018-03-27T13:24:08.614Z,19.43
2018-03-27T13:26:36.275Z,33.97
2018-03-27T13:29:03.933Z,16.00
2018-03-27T13:31:31.651Z,17.33
2018-03-27T13:33:59.412Z,13.93
2018-03-27T13:36:27.133Z,27.13
2018-03-27T13:38:55.398Z,20.00
2018-03-27T13:41:23.168Z,18.80
2018-03-27T13:43:50.730Z,18.27
2018-03-27T13:46:18.286Z,16.50
2018-03-27T13:48:46.123Z,19.20
2018-03-27T13:51:13.698Z,21.03
2018-03-27T13:53:41.258Z,23.53
2018-03-27T13:56:08.851Z,26.93
2018-03-27T13:58:36.410Z,47.23
2018-03-27T14:01:04.281Z,37.33
2018-03-27T14:03:31.838Z,21.73
2018-03-27T14:05:59.748Z,46.57
2018-03-27T14:08:27.315Z,53.97
2018-03-27T14:10:55.087Z,32.60
2018-03-27T14:13:22.650Z,48.87
2018-03-27T14:15:50.421Z,98.57
2018-03-27T14:18:19.144Z,53.93
2018-03-27T14:20:46.960Z,49.40
2018-03-27T14:23:14.589Z,61.07
2018-03-27T14:25:42.282Z,75.20
2018-03-27T14:28:09.842Z,121.87
2018-03-27T14:30:37.635Z,50.10
2018-03-27T14:33:05.451Z,41.07
2018-03-27T14:35:33.294Z,44.50
2018-03-27T14:38:01.088Z,73.53
2018-03-27T14:40:28.914Z,171.97
2018-03-27T14:42:56.478Z,35.10
2018-03-27T14:45:24.061Z,146.23
2018-03-27T14:47:51.631Z,95.03
2018-03-27T14:50:19.378Z,188.80
2018-03-27T14:52:47.297Z,132.53
2018-03-27T14:55:15.005Z,90.67
2018-03-27T14:57:42.574Z,152.40
2018-03-27T15:00:10.150Z,35.53
2018-03-27T15:02:37.730Z,43.47
2018-03-27T15:05:05.310Z,58.27
2018-03-27T15:07:32.881Z,37.27
2018-03-27T15:10:00.502Z,41.80
2018-03-27T15:12:28.069Z,52.63
2018-03-27T15:14:55.636Z,59.30
2018-03-27T15:17:23.207Z,72.53
2018-03-27T15:19:51.001Z,56.87
2018-03-27T15:22:18.702Z,68.30
2018-03-27T15:24:46.279Z,51.97
2018-03-27T15:27:14.128Z,50.03
2018-03-27T15:29:41.695Z,34.80
2018-03-27T15:32:09.482Z,37.33
2018-03-27T15:34:37.041Z,29.10
2018-03-27T15:37:04.622Z,31.43
2018-03-27T15:39:32.214Z,32.03
2018-03-27T15:41:59.774Z,31.97
2018-03-27T15:44:27.571Z,36.33
2018-03-27T15:46:55.134Z,69.07
2018-03-27T15:49:22.910Z,60.10
2018-03-27T15:51:50.479Z,80.93
2018-03-27T15:54:18.126Z,47.00
2018-03-27T15:56:45.709Z,55.07
2018-03-27T15:59:13.285Z,58.73
2018-03-27T16:01:40.901Z,48.40
2018-03-27T16:04:08.467Z,105.77
2018-03-27T16:06:36.033Z,104.00
2018-03-27T16:09:03.706Z,108.63
2018-03-27T16:11:31.278Z,87.97
2018-03-27T16:13:59.102Z,141.90
2018-03-27T16:16:26.905Z,97.70
2018-03-27T16:18:54.723Z,188.47
2018-03-27T16:21:22.433Z,191.67
2018-03-27T16:23:50.007Z,161.83
2018-03-27T16:26:17.737Z,191.77
2018-03-27T16:28:45.463Z,150.17
2018-03-27T16:31:13.066Z,156.00
2018-03-27T16:33:40.665Z,158.57
2018-03-27T16:36:08.293Z,183.10
2018-03-27T16:38:36.021Z,117.57
2018-03-27T16:41:03.593Z,76.20
2018-03-27T16:43:31.182Z,89.07
2018-03-27T16:45:58.903Z,94.97
2018-03-27T16:48:26.619Z,78.33
2018-03-27T16:50:54.335Z,76.43
2018-03-27T16:53:21.950Z,75.40
2018-03-27T16:55:49.694Z,102.50
2018-03-27T16:58:17.302Z,96.20
2018-03-27T17:00:44.930Z,134.33
2018-03-27T17:03:12.497Z,134.53
2018-03-27T17:05:40.078Z,155.13
2018-03-27T17:08:07.883Z,204.33
2018-03-27T17:10:35.586Z,190.17
2018-03-27T17:13:03.150Z,198.37
2018-03-27T17:15:30.829Z,187.37
2018-03-27T17:17:58.655Z,140.60
2018-03-27T17:20:26.222Z,155.10
2018-03-27T17:22:53.839Z,92.83
2018-03-27T17:25:21.610Z,90.00
2018-03-27T17:27:49.188Z,75.87
2018-03-27T17:30:16.925Z,88.07
2018-03-27T17:32:44.638Z,93.97
2018-03-27T17:35:12.482Z,79.93
2018-03-27T17:37:40.052Z,61.70
2018-03-27T17:40:07.610Z,66.93
2018-03-27T17:42:35.192Z,80.63
2018-03-27T17:45:02.753Z,90.23
2018-03-27T17:47:30.572Z,97.40
2018-03-27T17:49:58.270Z,102.73
2018-03-27T17:52:26.107Z,95.60
2018-03-27T17:54:53.674Z,93.80
2018-03-27T17:57:21.238Z,100.03
2018-03-27T17:59:49.061Z,80.27
2018-03-27T18:02:16.671Z,86.90
2018-03-27T18:04:44.238Z,92.23
2018-03-27T18:07:11.859Z,95.60
2018-03-27T18:09:39.503Z,118.47
2018-03-27T18:12:07.251Z,187.87
2018-03-27T18:14:35.070Z,122.30
2018-03-27T18:17:02.888Z,100.40
2018-03-27T18:19:30.497Z,107.13
2018-03-27T18:21:58.078Z,107.47
2018-03-27T18:24:25.810Z,127.97
2018-03-27T18:26:53.453Z,176.53
2018-03-27T18:29:21.151Z,234.40
2018-03-27T18:31:48.718Z,144.53
2018-03-27T18:34:16.294Z,113.40
2018-03-27T18:36:43.862Z,122.80
2018-03-27T18:39:11.458Z,119.57
2018-03-27T18:41:39.061Z,125.67
2018-03-27T18:44:06.771Z,110.63
2018-03-27T18:46:34.342Z,108.60
2018-03-27T18:49:01.907Z,117.53
2018-03-27T18:51:29.484Z,112.50
2018-03-27T18:53:57.230Z,125.90
2018-03-27T18:56:24.820Z,152.67
2018-03-27T18:58:52.400Z,136.60
2018-03-27T19:01:20.097Z,133.67
2018-03-27T19:03:47.666Z,147.30
2018-03-27T19:06:15.238Z,144.93
2018-03-27T19:08:42.817Z,260.57
2018-03-27T19:11:10.586Z,177.90
2018-03-27T19:13:38.170Z,158.83
2018-03-27T19:16:06.018Z,172.83
2018-03-27T19:18:33.642Z,127.07
2018-03-27T19:21:01.453Z,117.13
2018-03-27T19:23:29.021Z,139.27
2018-03-27T19:25:56.792Z,141.83
2018-03-27T19:28:24.375Z,189.77
2018-03-27T19:30:52.225Z,316.10
2018-03-27T19:33:19.791Z,259.80
2018-03-27T19:35:47.662Z,288.20
2018-03-27T19:38:15.225Z,255.87
2018-03-27T19:40:42.964Z,240.43
2018-03-27T19:43:10.601Z,188.53
2018-03-27T19:45:38.167Z,147.03
2018-03-27T19:48:05.770Z,149.33
2018-03-27T19:50:33.569Z,146.20
2018-03-27T19:53:01.394Z,154.37
2018-03-27T19:55:29.188Z,153.67
2018-03-27T19:57:56.903Z,136.97
2018-03-27T20:00:24.482Z,345.20
2018-03-27T20:02:52.265Z,397.63
2018-03-27T20:05:20.573Z,317.60
2018-03-27T20:07:48.501Z,272.27
2018-03-27T20:10:16.319Z,234.97
2018-03-27T20:12:44.136Z,685.90
2018-03-27T20:15:11.956Z,252.33
2018-03-27T20:17:39.778Z,186.53
2018-03-27T20:20:07.342Z,218.57
2018-03-27T20:22:35.058Z,260.00
2018-03-27T20:25:02.622Z,153.67
2018-03-27T20:27:30.238Z,158.27
2018-03-27T20:29:57.811Z,130.83
2018-03-27T20:32:25.392Z,138.37
2018-03-27T20:34:53.722Z,130.13
2018-03-27T20:37:21.725Z,150.50
2018-03-27T20:39:49.816Z,230.00
2018-03-27T20:42:17.410Z,209.10
2018-03-27T20:44:45.046Z,205.27
2018-03-27T20:47:12.754Z,192.13
2018-03-27T20:49:40.474Z,185.23
2018-03-27T20:52:08.063Z,919.60
2018-03-27T20:54:35.635Z,1134.03
2018-03-27T20:57:03.226Z,697.10
2018-03-27T20:59:30.961Z,246.07
2018-03-27T21:01:58.720Z,168.43
2018-03-27T21:04:26.519Z,244.63
2018-03-27T21:06:54.085Z,260.13
2018-03-27T21:09:21.663Z,234.37
2018-03-27T21:11:49.233Z,214.37
2018-03-27T21:14:16.958Z,210.73
2018-03-27T21:16:44.674Z,188.27
2018-03-27T21:19:12.295Z,173.83
2018-03-27T21:21:39.877Z,123.63
2018-03-27T21:24:07.483Z,111.70
2018-03-27T21:26:35.045Z,91.73
2018-03-27T21:29:02.636Z,100.33
2018-03-27T21:31:30.211Z,96.03
2018-03-27T21:33:57.824Z,102.30
2018-03-27T21:36:25.390Z,100.63
2018-03-27T21:38:52.953Z,101.90
2018-03-27T21:41:20.519Z,110.50
2018-03-27T21:43:48.090Z,127.07
2018-03-27T21:46:15.673Z,118.63
2018-03-27T21:48:43.298Z,102.63
2018-03-27T21:51:10.866Z,138.50
2018-03-27T21:53:38.430Z,132.70
2018-03-27T21:56:06.006Z,155.97
2018-03-27T21:58:33.573Z,199.70
2018-03-27T22:01:01.148Z,194.43
2018-03-27T22:03:41.536Z,169.60
2018-03-27T22:06:09.300Z,184.47
2018-03-27T22:08:36.866Z,192.03
2018-03-27T22:11:04.454Z,122.13
2018-03-27T22:13:32.032Z,99.87
2018-03-27T22:15:59.780Z,82.20
2018-03-27T22:18:27.346Z,61.40
2018-03-27T22:20:54.945Z,71.33
2018-03-27T22:23:22.554Z,69.77
2018-03-27T22:25:50.119Z,61.07
2018-03-27T22:28:17.759Z,56.03
2018-03-27T22:30:45.341Z,85.73
2018-03-27T22:33:12.996Z,82.33
2018-03-27T22:35:40.558Z,77.47
2018-03-27T22:38:08.113Z,90.93
2018-03-27T22:40:35.736Z,96.97
2018-03-27T22:43:03.443Z,131.97
2018-03-27T22:45:31.013Z,121.50
2018-03-27T22:47:58.689Z,116.27
2018-03-27T22:50:26.392Z,105.93
2018-03-27T22:52:53.953Z,119.93
2018-03-27T22:55:21.523Z,65.80
2018-03-27T22:57:49.138Z,101.30
2018-03-27T23:00:21.699Z,522.30
2018-03-27T23:02:49.398Z,903.83
2018-03-27T23:05:16.970Z,485.90
2018-03-27T23:07:44.526Z,163.93
2018-03-27T23:10:12.098Z,178.93
2018-03-27T23:12:39.656Z,141.20
2018-03-27T23:15:07.525Z,109.70
2018-03-27T23:17:35.089Z,344.33
2018-03-27T23:20:02.660Z,721.07
2018-03-27T23:22:33.058Z,282.50
2018-03-27T23:25:00.776Z,337.87
2018-03-27T23:27:28.524Z,246.03
2018-03-27T23:29:56.243Z,554.27
2018-03-27T23:32:24.061Z,1017.27
2018-03-27T23:34:51.662Z,764.87
2018-03-27T23:37:19.222Z,355.20
2018-03-27T23:39:47.014Z,323.50
2018-03-27T23:42:14.833Z,383.23
2018-03-27T23:44:42.405Z,845.30
2018-03-27T23:47:10.173Z,244.83
2018-03-27T23:49:37.782Z,107.90
2018-03-27T23:52:05.458Z,307.57
2018-03-27T23:54:33.224Z,539.87
2018-03-27T23:57:00.790Z,99.10
2018-03-27T23:59:28.347Z,255.57
